createdAt,value
2019-05-05T00:00:56.117Z,99853.38
2019-05-05T00:06:05.188Z,99851.23
2019-05-05T00:11:15.408Z,99864.69
2019-05-05T00:16:36.785Z,99864.11
2019-05-05T00:21:41.198Z,99858.74
2019-05-05T00:26:46.121Z,99858.27
2019-05-05T00:31:50.589Z,99864.80
2019-05-05T00:36:55.360Z,99869.08
2019-05-05T00:41:59.860Z,99877.64
2019-05-05T00:47:24.622Z,99870.30
2019-05-05T00:52:28.824Z,99872.50
2019-05-05T00:57:34.797Z,99885.41
2019-05-05T01:02:40.982Z,99896.23
2019-05-05T01:07:45.328Z,99909.19
2019-05-05T01:12:49.702Z,99917.32
2019-05-05T01:17:55.299Z,99915.13
2019-05-05T01:23:00.804Z,99935.93
2019-05-05T01:28:05.277Z,99933.34
2019-05-05T01:33:14.572Z,99936.35
2019-05-05T01:38:20.635Z,99950.98
2019-05-05T01:43:25.389Z,99957.88
2019-05-05T01:48:29.848Z,99956.63
2019-05-05T01:53:35.018Z,99960.03
2019-05-05T01:58:39.491Z,99969.98
2019-05-05T02:03:44.335Z,99977.31
2019-05-05T02:08:48.791Z,99979.48
2019-05-05T02:13:54.607Z,99982.52
2019-05-05T02:18:59.083Z,99988.53
2019-05-05T02:24:05.248Z,100000.17
2019-05-05T02:29:17.716Z,100002.78
2019-05-05T02:34:22.059Z,100007.08
2019-05-05T02:39:26.439Z,100023.49
2019-05-05T02:44:34.592Z,100026.92
2019-05-05T02:49:38.158Z,100034.69
2019-05-05T02:54:44.200Z,100027.36
2019-05-05T02:59:56.451Z,100031.20
2019-05-05T03:05:01.195Z,100050.23
2019-05-05T03:10:07.648Z,100069.64
2019-05-05T03:15:15.185Z,100082.59
2019-05-05T03:20:20.239Z,100057.09
2019-05-05T03:25:24.942Z,100069.62
2019-05-05T03:30:29.446Z,100076.52
2019-05-05T03:35:34.593Z,100093.36
2019-05-05T03:40:43.651Z,100097.66
2019-05-05T03:45:55.648Z,100095.05
2019-05-05T03:51:01.069Z,100082.13
2019-05-05T03:56:05.422Z,100103.67
2019-05-05T04:01:32.121Z,100104.13
2019-05-05T04:06:38.111Z,100109.30
2019-05-05T04:11:44.371Z,100110.22
2019-05-05T04:16:57.219Z,100116.69
2019-05-05T04:22:04.202Z,100120.58
2019-05-05T04:27:08.820Z,100126.16
2019-05-05T04:32:14.057Z,100121.83
2019-05-05T04:37:18.713Z,100129.63
2019-05-05T04:42:24.558Z,100132.64
2019-05-05T04:47:46.852Z,100137.42
2019-05-05T04:52:54.039Z,100142.09
2019-05-05T04:57:58.386Z,100138.67
2019-05-05T05:03:04.617Z,100142.00
2019-05-05T05:08:09.000Z,100142.48
2019-05-05T05:13:13.850Z,100157.61
2019-05-05T05:18:18.655Z,100164.11
2019-05-05T05:23:24.631Z,100176.25
2019-05-05T05:28:29.305Z,100177.84
2019-05-05T05:33:34.429Z,100177.67
2019-05-05T05:38:43.736Z,100182.62
2019-05-05T05:44:03.595Z,100193.46
2019-05-05T05:49:13.613Z,100194.73
2019-05-05T05:54:18.043Z,100203.22
2019-05-05T05:59:24.543Z,100208.64
2019-05-05T06:04:28.475Z,100213.25
2019-05-05T06:09:34.483Z,100207.44
2019-05-05T06:14:39.312Z,100222.04
2019-05-05T06:19:44.617Z,100223.48
2019-05-05T06:24:49.133Z,100231.10
2019-05-05T06:29:54.260Z,100232.92
2019-05-05T06:34:59.222Z,100239.26
2019-05-05T06:40:06.146Z,100245.00
2019-05-05T06:45:21.221Z,100238.61
2019-05-05T06:50:25.592Z,100236.70
2019-05-05T06:55:30.044Z,100237.27
2019-05-05T07:00:34.768Z,100237.09
2019-05-05T07:05:39.251Z,100249.71
2019-05-05T07:10:44.409Z,100245.16
2019-05-05T07:15:50.077Z,100250.41
2019-05-05T07:20:54.638Z,100253.43
2019-05-05T07:25:59.048Z,100252.79
2019-05-05T07:31:04.357Z,100254.65
2019-05-05T07:36:16.409Z,100264.50
2019-05-05T07:41:23.406Z,100270.55
2019-05-05T07:46:27.426Z,100269.98
2019-05-05T07:51:33.592Z,100263.38
2019-05-05T07:56:38.176Z,100273.81
2019-05-05T08:01:44.311Z,100274.89
2019-05-05T08:06:48.563Z,100266.66
2019-05-05T08:11:54.164Z,100277.47
2019-05-05T08:17:00.399Z,100275.50
2019-05-05T08:22:05.087Z,100279.46
2019-05-05T08:27:14.425Z,100288.48
2019-05-05T08:32:23.827Z,100289.02
2019-05-05T08:37:28.543Z,100270.64
2019-05-05T08:42:33.933Z,100288.33
2019-05-05T08:47:38.447Z,100298.70
2019-05-05T08:52:44.453Z,100301.06
2019-05-05T08:57:49.203Z,100295.43
2019-05-05T09:02:54.342Z,100293.38
2019-05-05T09:07:58.847Z,100299.64
2019-05-05T09:13:03.961Z,100300.83
2019-05-05T09:18:09.289Z,100291.31
2019-05-05T09:23:14.724Z,100293.12
2019-05-05T09:28:24.623Z,100291.06
2019-05-05T09:33:29.120Z,100298.77
2019-05-05T09:38:34.714Z,100304.33
2019-05-05T09:43:39.368Z,100313.90
2019-05-05T09:48:44.148Z,100306.81
2019-05-05T09:53:48.622Z,100310.20
2019-05-05T09:58:54.497Z,100311.17
2019-05-05T10:04:13.869Z,100319.48
2019-05-05T10:09:18.293Z,100318.58
2019-05-05T10:14:22.651Z,100311.93
2019-05-05T10:19:28.773Z,100304.77
2019-05-05T10:24:40.750Z,100329.75
2019-05-05T10:29:45.762Z,100323.78
2019-05-05T10:34:53.534Z,100327.38
2019-05-05T10:40:03.641Z,100319.75
2019-05-05T10:45:10.674Z,100317.44
2019-05-05T10:50:17.040Z,100320.45
2019-05-05T10:55:24.091Z,100325.07
2019-05-05T11:00:41.020Z,100309.95
2019-05-05T11:05:48.810Z,100312.50
2019-05-05T11:10:57.964Z,100309.36
2019-05-05T11:16:04.354Z,100311.36
2019-05-05T11:21:08.907Z,100306.21
2019-05-05T11:26:14.369Z,100298.20
2019-05-05T11:31:19.449Z,100286.52
2019-05-05T11:36:41.523Z,100286.27
2019-05-05T11:41:45.979Z,100285.10
2019-05-05T11:46:50.620Z,100289.13
2019-05-05T11:51:55.017Z,100294.11
2019-05-05T11:57:00.647Z,100299.80
2019-05-05T12:02:06.023Z,100299.39
2019-05-05T12:07:11.286Z,100305.13
2019-05-05T12:12:16.276Z,100291.52
2019-05-05T12:17:36.640Z,100295.93
2019-05-05T12:22:41.171Z,100292.95
2019-05-05T12:28:04.379Z,100294.94
2019-05-05T12:33:09.319Z,100302.37
2019-05-05T12:38:13.728Z,100297.23
2019-05-05T12:43:18.153Z,100287.09
2019-05-05T12:48:24.238Z,100292.17
2019-05-05T12:53:28.604Z,100290.39
2019-05-05T12:58:33.588Z,100286.39
2019-05-05T13:03:40.549Z,100281.85
2019-05-05T13:08:44.976Z,100281.45
2019-05-05T13:13:49.375Z,100291.19
2019-05-05T13:18:54.010Z,100292.36
2019-05-05T13:24:09.411Z,100289.68
2019-05-05T13:29:14.022Z,100295.30
2019-05-05T13:34:19.622Z,100297.24
2019-05-05T13:39:24.879Z,100314.78
2019-05-05T13:44:49.984Z,100319.31
2019-05-05T13:49:56.023Z,100326.02
2019-05-05T13:55:00.432Z,100321.23
2019-05-05T14:00:06.645Z,100313.91
2019-05-05T14:05:13.286Z,100299.19
2019-05-05T14:10:19.674Z,100309.01
2019-05-05T14:15:24.422Z,100295.98
2019-05-05T14:20:28.885Z,100303.33
2019-05-05T14:25:33.407Z,100296.69
2019-05-05T14:30:56.015Z,100291.78
2019-05-05T14:36:04.993Z,100304.67
2019-05-05T14:41:09.491Z,100297.95
2019-05-05T14:46:14.482Z,100309.45
2019-05-05T14:51:19.091Z,100311.84
2019-05-05T14:56:35.782Z,100314.98
2019-05-05T15:01:29.585Z,100320.58
2019-05-05T15:06:44.486Z,100324.87
2019-05-05T15:12:06.935Z,100320.08
2019-05-05T15:17:11.396Z,100317.15
2019-05-05T15:22:15.832Z,100313.42
2019-05-05T15:27:20.247Z,100315.23
2019-05-05T15:32:24.737Z,100312.94
2019-05-05T15:37:29.091Z,100313.56
2019-05-05T15:42:33.590Z,100312.79
2019-05-05T15:47:37.957Z,100305.95
2019-05-05T15:52:44.041Z,100301.24
2019-05-05T15:57:48.863Z,100297.41
2019-05-05T16:02:54.847Z,100306.73
2019-05-05T16:08:00.309Z,100306.97
2019-05-05T16:13:04.925Z,100302.83
2019-05-05T16:18:13.792Z,100303.91
2019-05-05T16:23:25.602Z,100305.30
2019-05-05T16:28:29.963Z,100296.88
2019-05-05T16:33:34.377Z,100300.27
2019-05-05T16:38:38.680Z,100296.55
2019-05-05T16:43:44.219Z,100300.12
2019-05-05T16:48:48.767Z,100299.54
2019-05-05T16:53:53.887Z,100297.27
2019-05-05T16:58:59.219Z,100295.19
2019-05-05T17:04:11.225Z,100298.31
2019-05-05T17:09:09.718Z,100301.97
2019-05-05T17:14:23.462Z,100304.72
2019-05-05T17:19:29.591Z,100301.11
2019-05-05T17:24:34.451Z,100311.59
2019-05-05T17:29:38.957Z,100308.11
2019-05-05T17:34:44.875Z,100307.97
2019-05-05T17:39:51.204Z,100312.62
2019-05-05T17:45:03.791Z,100309.86
2019-05-05T17:50:11.801Z,100309.54
2019-05-05T17:55:29.717Z,100320.98
2019-05-05T18:00:35.738Z,100318.58
2019-05-05T18:05:59.090Z,100316.95
2019-05-05T18:11:05.071Z,100316.95
2019-05-05T18:16:09.560Z,100326.17
2019-05-05T18:21:14.319Z,100331.17
2019-05-05T18:26:18.741Z,100338.53
2019-05-05T18:31:24.299Z,100332.52
2019-05-05T18:36:29.526Z,100332.91
2019-05-05T18:41:35.609Z,100336.80
2019-05-05T18:46:40.098Z,100342.32
2019-05-05T18:51:45.284Z,100348.72
2019-05-05T18:56:49.784Z,100347.00
2019-05-05T19:02:07.781Z,100352.28
2019-05-05T19:07:14.948Z,100353.84
2019-05-05T19:12:19.376Z,100360.58
2019-05-05T19:17:23.938Z,100362.87
2019-05-05T19:22:29.326Z,100363.45
2019-05-05T19:27:33.732Z,100366.81
2019-05-05T19:32:38.092Z,100371.28
2019-05-05T19:37:44.431Z,100371.70
2019-05-05T19:42:48.578Z,100364.81
2019-05-05T19:47:53.009Z,100372.87
2019-05-05T19:52:57.390Z,100373.03
2019-05-05T19:58:03.540Z,100376.20
2019-05-05T20:03:07.905Z,100373.91
2019-05-05T20:08:14.504Z,100381.48
2019-05-05T20:13:18.351Z,100377.92
2019-05-05T20:18:24.890Z,100381.06
2019-05-05T20:23:29.484Z,100378.67
2019-05-05T20:28:33.990Z,100380.24
2019-05-05T20:33:40.026Z,100380.00
2019-05-05T20:38:49.063Z,100376.11
2019-05-05T20:43:54.212Z,100373.16
2019-05-05T20:48:58.845Z,100369.04
2019-05-05T20:54:04.778Z,100370.03
2019-05-05T20:59:09.426Z,100377.77
2019-05-05T21:04:14.156Z,100373.12
2019-05-05T21:09:18.515Z,100376.88
2019-05-05T21:14:33.670Z,100373.48
2019-05-05T21:19:29.101Z,100382.98
2019-05-05T21:24:33.555Z,100379.17
2019-05-05T21:29:42.182Z,100377.11
2019-05-05T21:34:45.018Z,100377.66
2019-05-05T21:39:49.497Z,100379.32
2019-05-05T21:44:57.404Z,100385.41
2019-05-05T21:50:03.736Z,100391.17
2019-05-05T21:55:10.071Z,100397.27
2019-05-05T22:00:34.632Z,100391.75
2019-05-05T22:05:41.420Z,100390.53
2019-05-05T22:10:45.829Z,100390.49
2019-05-05T22:15:50.165Z,100387.81
2019-05-05T22:21:14.097Z,100386.14
2019-05-05T22:26:18.702Z,100386.63
2019-05-05T22:31:23.825Z,100385.79
2019-05-05T22:36:28.268Z,100382.31
2019-05-05T22:41:33.773Z,100385.77
2019-05-05T22:46:38.378Z,100380.59
2019-05-05T22:51:44.715Z,100380.09
2019-05-05T22:56:48.791Z,100381.08
2019-05-05T23:01:54.164Z,100383.25
2019-05-05T23:07:00.295Z,100378.50
2019-05-05T23:12:04.818Z,100383.67
2019-05-05T23:17:10.820Z,100377.68
2019-05-05T23:22:24.079Z,100382.84
2019-05-05T23:27:48.925Z,100382.44
2019-05-05T23:32:54.809Z,100375.94
2019-05-05T23:37:59.377Z,100376.36
2019-05-05T23:43:04.486Z,100380.70
2019-05-05T23:48:09.441Z,100378.08
2019-05-05T23:53:13.923Z,100374.23
2019-05-05T23:58:18.314Z,100377.61
